createdAt,value
2022-11-10T00:01:07.456Z,8.02
2022-11-10T00:03:35.705Z,10.43
2022-11-10T00:06:04.687Z,7.43
2022-11-10T00:08:31.633Z,8.93
2022-11-10T00:10:58.960Z,10.32
2022-11-10T00:13:27.766Z,13.10
2022-11-10T00:16:12.804Z,12.35
2022-11-10T00:18:39.424Z,11.27
2022-11-10T00:21:08.534Z,8.35
2022-11-10T00:23:35.544Z,10.57
2022-11-10T00:26:02.554Z,12.80
2022-11-10T00:28:31.709Z,10.90
2022-11-10T00:30:58.593Z,8.15
2022-11-10T00:33:25.161Z,9.63
2022-11-10T00:35:51.898Z,11.77
2022-11-10T00:38:18.568Z,11.88
2022-11-10T00:40:45.091Z,10.73
2022-11-10T00:43:11.538Z,8.98
2022-11-10T00:45:41.916Z,15.35
2022-11-10T00:48:08.520Z,9.75
2022-11-10T00:50:34.996Z,12.07
2022-11-10T00:53:01.721Z,10.18
2022-11-10T00:55:28.211Z,8.50
2022-11-10T00:57:54.695Z,6.43
2022-11-10T01:00:21.335Z,9.43
2022-11-10T01:02:47.818Z,7.85
2022-11-10T01:05:14.367Z,9.02
2022-11-10T01:07:40.840Z,10.75
2022-11-10T01:10:07.716Z,9.95
2022-11-10T01:12:34.251Z,11.07
2022-11-10T01:15:00.829Z,7.60
2022-11-10T01:17:27.271Z,7.90
2022-11-10T01:19:53.764Z,13.50
2022-11-10T01:22:20.361Z,9.15
2022-11-10T01:24:46.854Z,7.55
2022-11-10T01:27:13.256Z,10.50
2022-11-10T01:29:39.715Z,10.15
2022-11-10T01:32:06.217Z,9.77
2022-11-10T01:34:32.727Z,11.68
2022-11-10T01:36:59.193Z,8.25
2022-11-10T01:39:25.749Z,9.40
2022-11-10T01:41:52.393Z,12.85
2022-11-10T01:44:24.533Z,12.68
2022-11-10T01:46:51.274Z,12.60
2022-11-10T01:49:22.198Z,13.48
2022-11-10T01:51:53.891Z,14.23
2022-11-10T01:54:36.377Z,10.00
2022-11-10T01:57:07.097Z,11.10
2022-11-10T01:59:39.714Z,16.05
2022-11-10T02:02:16.181Z,8.30
2022-11-10T02:04:43.138Z,12.68
2022-11-10T02:07:10.932Z,11.00
2022-11-10T02:09:37.547Z,11.50
2022-11-10T02:12:04.328Z,11.73
2022-11-10T02:14:31.007Z,8.07
2022-11-10T02:16:57.567Z,10.05
2022-11-10T02:19:27.473Z,14.27
2022-11-10T02:21:53.975Z,8.57
2022-11-10T02:24:20.413Z,8.85
2022-11-10T02:26:50.761Z,9.35
2022-11-10T02:29:17.432Z,15.45
2022-11-10T02:31:43.996Z,10.73
2022-11-10T02:34:10.649Z,11.43
2022-11-10T02:36:37.146Z,16.35
2022-11-10T02:39:04.119Z,11.90
2022-11-10T02:41:30.661Z,8.50
2022-11-10T02:43:57.717Z,10.93
2022-11-10T02:46:24.296Z,10.95
2022-11-10T02:48:50.844Z,12.38
2022-11-10T02:51:17.377Z,12.73
2022-11-10T02:53:43.912Z,14.15
2022-11-10T02:56:10.584Z,14.07
2022-11-10T02:58:36.990Z,11.75
2022-11-10T03:01:05.802Z,15.20
2022-11-10T03:03:32.713Z,8.27
2022-11-10T03:05:59.575Z,16.55
2022-11-10T03:08:25.999Z,11.20
2022-11-10T03:10:56.817Z,13.15
2022-11-10T03:13:32.091Z,12.73
2022-11-10T03:18:33.029Z,12.02
2022-11-10T03:20:59.542Z,12.70
2022-11-10T03:23:26.165Z,15.02
2022-11-10T03:25:52.623Z,9.15
2022-11-10T03:28:19.133Z,11.80
2022-11-10T03:30:45.599Z,13.65
2022-11-10T03:33:12.155Z,12.07
2022-11-10T03:35:38.670Z,15.65
2022-11-10T03:38:05.234Z,11.70
2022-11-10T03:40:41.205Z,14.13
2022-11-10T03:43:18.277Z,14.82
2022-11-10T03:45:45.209Z,18.23
2022-11-10T03:48:11.713Z,10.27
2022-11-10T03:50:38.259Z,13.82
2022-11-10T03:53:04.726Z,11.35
2022-11-10T03:55:31.233Z,12.93
2022-11-10T03:58:02.155Z,13.07
2022-11-10T04:00:29.251Z,13.60
2022-11-10T04:02:55.701Z,15.73
2022-11-10T04:05:40.517Z,9.75
2022-11-10T04:08:31.912Z,15.43
2022-11-10T04:10:58.416Z,11.40
2022-11-10T04:13:43.601Z,9.75
2022-11-10T04:16:10.289Z,16.70
2022-11-10T04:18:36.789Z,13.60
2022-11-10T04:21:03.658Z,18.20
2022-11-10T04:23:35.063Z,10.80
2022-11-10T04:26:27.970Z,12.10
2022-11-10T04:29:13.207Z,10.25
2022-11-10T04:34:45.720Z,11.07
2022-11-10T04:37:12.144Z,11.60
2022-11-10T04:39:40.621Z,12.75
2022-11-10T04:42:07.101Z,14.45
2022-11-10T04:44:33.573Z,16.10
2022-11-10T04:46:59.954Z,12.68
2022-11-10T04:49:26.561Z,15.32
2022-11-10T04:51:53.016Z,16.60
2022-11-10T04:54:19.465Z,12.50
2022-11-10T04:56:45.878Z,15.57
2022-11-10T04:59:12.305Z,15.15
2022-11-10T05:01:38.755Z,12.38
2022-11-10T05:04:05.644Z,12.57
2022-11-10T05:06:32.270Z,9.25
2022-11-10T05:08:58.783Z,18.33
2022-11-10T05:11:25.287Z,14.50
2022-11-10T05:13:51.782Z,14.93
2022-11-10T05:16:18.247Z,9.98
2022-11-10T05:18:44.834Z,13.25
2022-11-10T05:21:11.275Z,16.60
2022-11-10T05:23:37.865Z,18.25
2022-11-10T05:26:15.267Z,16.98
2022-11-10T05:28:47.946Z,18.80
2022-11-10T05:31:14.488Z,17.83
2022-11-10T05:33:41.003Z,17.13
2022-11-10T05:36:08.028Z,17.02
2022-11-10T05:38:38.882Z,12.63
2022-11-10T05:41:08.494Z,18.60
2022-11-10T05:43:34.939Z,13.60
2022-11-10T05:46:02.213Z,17.40
2022-11-10T05:48:28.629Z,9.95
2022-11-10T05:50:55.083Z,13.10
2022-11-10T05:53:21.849Z,15.63
2022-11-10T05:55:48.517Z,13.20
2022-11-10T05:58:14.926Z,13.68
2022-11-10T06:00:41.588Z,14.60
2022-11-10T06:03:16.730Z,16.65
2022-11-10T06:05:43.661Z,16.98
2022-11-10T06:08:10.212Z,15.23
2022-11-10T06:10:37.301Z,12.15
2022-11-10T06:13:04.592Z,16.30
2022-11-10T06:15:31.101Z,13.15
2022-11-10T06:18:00.650Z,16.83
2022-11-10T06:20:27.590Z,15.23
2022-11-10T06:22:59.761Z,16.65
2022-11-10T06:25:26.288Z,17.23
2022-11-10T06:27:53.527Z,17.23
2022-11-10T06:30:19.987Z,16.23
2022-11-10T06:32:46.499Z,14.50
2022-11-10T06:35:12.951Z,15.68
2022-11-10T06:37:39.479Z,12.55
2022-11-10T06:40:11.159Z,14.18
2022-11-10T06:42:37.615Z,14.35
2022-11-10T06:45:04.949Z,17.10
2022-11-10T06:47:32.130Z,12.77
2022-11-10T06:49:58.561Z,13.02
2022-11-10T06:52:25.035Z,12.98
2022-11-10T06:54:51.472Z,14.57
2022-11-10T06:57:17.929Z,10.13
2022-11-10T06:59:44.345Z,11.98
2022-11-10T07:02:14.489Z,20.95
2022-11-10T07:04:42.542Z,17.23
2022-11-10T07:07:10.061Z,11.40
2022-11-10T07:09:36.574Z,8.75
2022-11-10T07:12:03.587Z,11.45
2022-11-10T07:14:30.285Z,13.27
2022-11-10T07:16:56.725Z,13.77
2022-11-10T07:19:23.201Z,12.70
2022-11-10T07:21:49.663Z,11.55
2022-11-10T07:24:16.336Z,11.25
2022-11-10T07:26:42.806Z,12.70
2022-11-10T07:29:09.219Z,18.00
2022-11-10T07:31:35.818Z,12.82
2022-11-10T07:34:02.242Z,16.05
2022-11-10T07:36:28.951Z,22.92
2022-11-10T07:38:55.847Z,16.05
2022-11-10T07:41:22.433Z,16.52
2022-11-10T07:43:48.975Z,12.45
2022-11-10T07:46:15.355Z,16.80
2022-11-10T07:48:41.792Z,16.85
2022-11-10T07:51:09.504Z,20.45
2022-11-10T07:53:35.904Z,13.75
2022-11-10T07:56:02.389Z,14.43
2022-11-10T07:58:30.224Z,16.30
2022-11-10T08:00:56.756Z,14.02
2022-11-10T08:03:23.704Z,14.10
2022-11-10T08:05:50.449Z,15.50
2022-11-10T08:08:17.038Z,14.20
2022-11-10T08:10:43.954Z,19.15
2022-11-10T08:13:12.415Z,13.35
2022-11-10T08:15:40.063Z,14.55
2022-11-10T08:18:18.438Z,14.60
2022-11-10T08:20:44.986Z,13.10
2022-11-10T08:23:11.667Z,17.00
2022-11-10T08:25:39.379Z,14.70
2022-11-10T08:28:14.845Z,17.17
2022-11-10T08:30:44.645Z,11.93
2022-11-10T08:33:13.586Z,14.98
2022-11-10T08:35:43.150Z,14.10
2022-11-10T08:38:12.274Z,13.68
2022-11-10T08:40:39.866Z,13.52
2022-11-10T08:43:10.172Z,21.70
2022-11-10T08:45:38.582Z,14.93
2022-11-10T08:48:11.912Z,13.27
2022-11-10T08:50:39.141Z,15.02
2022-11-10T08:53:17.312Z,17.20
2022-11-10T08:55:44.624Z,14.02
2022-11-10T08:58:19.026Z,14.43
2022-11-10T09:00:46.003Z,14.23
2022-11-10T09:03:16.447Z,12.85
2022-11-10T09:05:43.533Z,15.90
2022-11-10T09:08:10.014Z,13.52
2022-11-10T09:10:43.170Z,19.30
2022-11-10T09:13:11.000Z,13.95
2022-11-10T09:15:37.825Z,13.27
2022-11-10T09:18:06.369Z,12.10
2022-11-10T09:20:35.050Z,18.50
2022-11-10T09:23:13.737Z,12.68
2022-11-10T09:25:40.769Z,15.82
2022-11-10T09:28:12.602Z,14.82
2022-11-10T09:30:39.777Z,16.33
2022-11-10T09:33:06.361Z,11.73
2022-11-10T09:35:32.792Z,17.10
2022-11-10T09:37:59.195Z,10.98
2022-11-10T09:40:36.162Z,14.98
2022-11-10T09:43:05.904Z,18.77
2022-11-10T09:45:39.060Z,13.13
2022-11-10T09:48:28.479Z,11.30
2022-11-10T09:51:10.134Z,14.85
2022-11-10T09:53:41.578Z,14.07
2022-11-10T09:56:14.704Z,13.63
2022-11-10T10:01:33.439Z,14.60
2022-11-10T10:04:33.120Z,15.93
2022-11-10T10:07:13.207Z,12.40
2022-11-10T10:10:02.268Z,9.23
2022-11-10T10:12:55.734Z,15.23
2022-11-10T10:15:49.979Z,22.10
2022-11-10T10:18:35.017Z,16.80
2022-11-10T10:21:18.658Z,10.38
2022-11-10T10:26:41.338Z,14.38
2022-11-10T10:29:11.239Z,14.07
2022-11-10T10:31:45.663Z,14.48
2022-11-10T10:34:16.068Z,15.90
2022-11-10T10:36:44.364Z,13.60
2022-11-10T10:39:17.455Z,15.05
2022-11-10T10:44:16.901Z,14.93
2022-11-10T10:46:47.707Z,18.02
2022-11-10T10:49:29.223Z,16.52
2022-11-10T10:52:17.901Z,15.73
2022-11-10T10:54:44.349Z,8.95
2022-11-10T10:57:30.537Z,16.60
2022-11-10T11:00:29.460Z,12.15
2022-11-10T11:03:07.199Z,14.38
2022-11-10T11:05:33.615Z,11.70
2022-11-10T11:08:02.494Z,13.10
2022-11-10T11:10:35.884Z,15.73
2022-11-10T11:13:16.012Z,11.25
2022-11-10T11:15:42.438Z,14.35
2022-11-10T11:18:19.347Z,8.85
2022-11-10T11:20:59.889Z,12.77
2022-11-10T11:23:29.278Z,16.02
2022-11-10T11:26:01.826Z,12.93
2022-11-10T11:28:40.262Z,12.23
2022-11-10T11:31:19.218Z,14.23
2022-11-10T11:34:05.245Z,13.88
2022-11-10T11:36:42.003Z,10.52
2022-11-10T11:39:23.482Z,12.95
2022-11-10T11:42:28.996Z,11.30
2022-11-10T11:45:18.264Z,10.65
2022-11-10T11:48:11.023Z,12.57
2022-11-10T11:51:41.869Z,12.80
2022-11-10T11:54:30.118Z,8.93
2022-11-10T11:57:20.566Z,10.65
2022-11-10T12:00:12.833Z,13.38
2022-11-10T12:02:53.267Z,9.73
2022-11-10T12:05:28.964Z,13.60
2022-11-10T12:07:55.442Z,13.57
2022-11-10T12:10:45.428Z,11.45
2022-11-10T12:13:27.461Z,13.30
2022-11-10T12:16:21.466Z,12.55
2022-11-10T12:19:27.083Z,11.70
2022-11-10T12:22:00.777Z,11.82
2022-11-10T12:24:33.003Z,12.18
2022-11-10T12:27:17.275Z,13.80
2022-11-10T12:29:50.498Z,17.10
2022-11-10T12:32:33.749Z,10.63
2022-11-10T12:37:39.860Z,13.98
2022-11-10T12:40:15.316Z,13.60
2022-11-10T12:42:45.224Z,11.60
2022-11-10T12:45:21.119Z,11.13
2022-11-10T12:47:48.459Z,12.60
2022-11-10T12:50:49.097Z,11.88
2022-11-10T12:53:22.895Z,12.00
2022-11-10T12:56:05.541Z,12.90
2022-11-10T12:58:32.144Z,14.15
2022-11-10T13:01:12.613Z,11.60
2022-11-10T13:03:52.364Z,11.55
2022-11-10T13:06:31.882Z,9.90
2022-11-10T13:08:59.601Z,16.27
2022-11-10T13:11:31.296Z,11.40
2022-11-10T13:14:00.477Z,11.07
2022-11-10T13:16:41.885Z,9.02
2022-11-10T13:19:09.612Z,12.55
2022-11-10T13:21:51.529Z,14.32
2022-11-10T13:24:25.021Z,13.77
2022-11-10T13:26:53.062Z,9.77
2022-11-10T13:29:20.346Z,11.30
2022-11-10T13:31:52.789Z,10.38
2022-11-10T13:34:19.287Z,9.32
2022-11-10T13:36:47.867Z,11.82
2022-11-10T13:39:20.521Z,9.70
2022-11-10T13:41:48.543Z,9.00
2022-11-10T13:44:34.480Z,6.60
2022-11-10T13:47:10.138Z,8.02
2022-11-10T13:49:55.015Z,10.50
2022-11-10T13:52:46.323Z,10.98
2022-11-10T13:55:37.752Z,9.18
2022-11-10T13:58:12.019Z,10.95
2022-11-10T14:00:38.562Z,7.20
2022-11-10T14:03:07.329Z,7.88
2022-11-10T14:05:38.529Z,7.68
2022-11-10T14:08:16.884Z,8.15
2022-11-10T14:10:58.422Z,8.15
2022-11-10T14:13:54.412Z,6.95
2022-11-10T14:16:26.860Z,6.53
2022-11-10T14:19:12.214Z,10.82
2022-11-10T14:21:43.286Z,9.15
2022-11-10T14:24:36.717Z,8.20
2022-11-10T14:29:39.289Z,8.10
2022-11-10T14:32:26.547Z,9.20
2022-11-10T14:34:55.559Z,6.75
2022-11-10T14:37:28.156Z,8.13
2022-11-10T14:40:02.478Z,15.10
2022-11-10T14:42:31.238Z,7.55
2022-11-10T14:45:08.481Z,9.93
2022-11-10T14:47:36.263Z,12.45
2022-11-10T14:50:26.873Z,10.98
2022-11-10T14:53:36.018Z,7.32
2022-11-10T14:56:06.395Z,9.27
2022-11-10T14:58:38.808Z,10.18
2022-11-10T15:01:07.411Z,9.90
2022-11-10T15:03:38.511Z,8.43
2022-11-10T15:06:11.899Z,8.02
2022-11-10T15:08:40.663Z,9.90
2022-11-10T15:11:07.939Z,7.68
2022-11-10T15:13:39.136Z,8.27
2022-11-10T15:16:25.592Z,10.30
2022-11-10T15:18:54.907Z,11.82
2022-11-10T15:21:34.364Z,11.25
2022-11-10T15:24:06.982Z,12.77
2022-11-10T15:26:40.982Z,11.93
2022-11-10T15:29:19.491Z,5.90
2022-11-10T15:31:51.712Z,3.88
2022-11-10T15:34:29.848Z,8.57
2022-11-10T15:37:30.506Z,6.78
2022-11-10T15:40:30.131Z,7.53
2022-11-10T15:43:14.954Z,8.93
2022-11-10T15:45:44.038Z,6.13
2022-11-10T15:48:15.827Z,7.90
2022-11-10T15:50:45.341Z,7.25
2022-11-10T15:53:15.437Z,5.47
2022-11-10T15:55:44.180Z,9.27
2022-11-10T15:58:19.720Z,11.07
2022-11-10T16:00:46.921Z,6.88
2022-11-10T16:03:16.570Z,7.28
2022-11-10T16:05:43.053Z,8.80
2022-11-10T16:08:15.782Z,11.05
2022-11-10T16:10:45.446Z,11.02
2022-11-10T16:13:16.610Z,8.55
2022-11-10T16:15:45.258Z,12.05
2022-11-10T16:18:15.146Z,9.40
2022-11-10T16:20:42.440Z,12.50
2022-11-10T16:23:09.432Z,10.13
2022-11-10T16:25:36.407Z,7.38
2022-11-10T16:28:05.309Z,8.73
2022-11-10T16:30:33.031Z,7.28
2022-11-10T16:33:00.281Z,9.73
2022-11-10T16:35:27.491Z,7.32
2022-11-10T16:37:54.451Z,8.02
2022-11-10T16:40:23.408Z,9.02
2022-11-10T16:42:50.384Z,5.82
2022-11-10T16:45:22.221Z,8.50
2022-11-10T16:47:52.099Z,6.43
2022-11-10T16:50:36.584Z,5.57
2022-11-10T16:53:05.638Z,8.88
2022-11-10T16:55:32.538Z,6.40
2022-11-10T16:57:59.202Z,5.53
2022-11-10T17:00:25.824Z,6.70
2022-11-10T17:03:06.094Z,11.02
2022-11-10T17:05:34.490Z,10.73
2022-11-10T17:08:03.492Z,5.82
2022-11-10T17:10:30.043Z,8.93
2022-11-10T17:12:56.532Z,10.02
2022-11-10T17:15:23.340Z,9.75
2022-11-10T17:18:04.912Z,7.70
2022-11-10T17:20:37.844Z,9.30
2022-11-10T17:23:06.692Z,10.68
2022-11-10T17:25:35.932Z,4.00
2022-11-10T17:28:02.533Z,7.88
2022-11-10T17:30:29.138Z,5.00
2022-11-10T17:33:05.377Z,7.00
2022-11-10T17:35:39.185Z,9.45
2022-11-10T17:38:12.772Z,9.93
2022-11-10T17:40:42.482Z,6.22
2022-11-10T17:43:12.087Z,5.70
2022-11-10T17:45:38.789Z,4.18
2022-11-10T17:48:05.692Z,3.53
2022-11-10T17:50:32.553Z,6.40
2022-11-10T17:53:28.051Z,8.93
2022-11-10T17:55:54.789Z,9.70
2022-11-10T17:58:21.470Z,9.65
2022-11-10T18:00:48.310Z,8.48
2022-11-10T18:03:16.878Z,5.50
2022-11-10T18:05:43.838Z,6.53
2022-11-10T18:08:11.484Z,5.88
2022-11-10T18:10:50.935Z,6.45
2022-11-10T18:13:18.622Z,5.00
2022-11-10T18:15:46.663Z,6.70
2022-11-10T18:18:14.846Z,7.85
2022-11-10T18:20:42.291Z,5.43
2022-11-10T18:23:11.575Z,13.05
2022-11-10T18:25:39.919Z,12.43
2022-11-10T18:28:07.018Z,6.97
2022-11-10T18:30:35.451Z,6.78
2022-11-10T18:33:03.926Z,7.03
2022-11-10T18:35:30.915Z,4.72
2022-11-10T18:38:01.096Z,5.93
2022-11-10T18:40:27.625Z,7.85
2022-11-10T18:42:59.880Z,7.47
2022-11-10T18:45:29.711Z,9.10
2022-11-10T18:48:04.076Z,6.55
2022-11-10T18:50:30.971Z,5.95
2022-11-10T18:52:58.335Z,7.18
2022-11-10T18:55:25.269Z,7.90
2022-11-10T18:57:52.897Z,9.90
2022-11-10T19:00:19.774Z,7.75
2022-11-10T19:02:46.369Z,4.90
2022-11-10T19:05:12.842Z,6.45
2022-11-10T19:07:39.386Z,11.85
2022-11-10T19:10:06.389Z,8.45
2022-11-10T19:12:33.162Z,8.30
2022-11-10T19:14:59.690Z,8.07
2022-11-10T19:17:26.237Z,7.28
2022-11-10T19:19:56.498Z,7.15
2022-11-10T19:22:24.130Z,12.27
2022-11-10T19:27:37.233Z,7.72
2022-11-10T19:30:04.283Z,6.82
2022-11-10T19:32:30.923Z,9.90
2022-11-10T19:34:58.552Z,5.50
2022-11-10T19:37:25.066Z,6.90
2022-11-10T19:39:51.587Z,5.22
2022-11-10T19:42:18.262Z,6.95
2022-11-10T19:44:44.775Z,5.60
2022-11-10T19:47:11.791Z,6.50
2022-11-10T19:49:38.723Z,6.68
2022-11-10T19:52:05.435Z,8.00
2022-11-10T19:54:32.032Z,4.90
2022-11-10T19:56:58.592Z,8.02
2022-11-10T19:59:25.102Z,8.50
2022-11-10T20:01:51.908Z,10.50
2022-11-10T20:04:18.663Z,6.90
2022-11-10T20:06:45.371Z,6.65
2022-11-10T20:09:11.968Z,6.20
2022-11-10T20:11:38.518Z,11.27
2022-11-10T20:14:06.923Z,6.93
2022-11-10T20:16:33.581Z,10.70
2022-11-10T20:19:00.226Z,5.95
2022-11-10T20:21:26.757Z,8.65
2022-11-10T20:23:55.256Z,8.00
2022-11-10T20:26:22.635Z,7.00
2022-11-10T20:28:49.802Z,6.18
2022-11-10T20:31:24.295Z,7.68
2022-11-10T20:33:52.763Z,10.07
2022-11-10T20:36:26.161Z,9.38
2022-11-10T20:38:54.558Z,9.65
2022-11-10T20:41:24.603Z,10.07
2022-11-10T20:43:51.652Z,8.25
2022-11-10T20:46:52.906Z,13.38
2022-11-10T20:49:07.231Z,7.55
2022-11-10T20:51:33.909Z,8.68
2022-11-10T20:54:01.603Z,11.75
2022-11-10T20:56:29.881Z,9.43
2022-11-10T20:58:57.688Z,11.68
2022-11-10T21:01:24.874Z,12.25
2022-11-10T21:03:52.021Z,10.48
2022-11-10T21:06:18.828Z,6.85
2022-11-10T21:08:45.716Z,6.30
2022-11-10T21:11:32.643Z,8.50
2022-11-10T21:13:59.786Z,5.80
2022-11-10T21:16:26.316Z,10.20
2022-11-10T21:18:56.180Z,8.00
2022-11-10T21:21:28.005Z,11.80
2022-11-10T21:23:57.521Z,6.88
2022-11-10T21:26:24.361Z,7.03
2022-11-10T21:28:51.171Z,10.40
2022-11-10T21:31:18.681Z,6.90
2022-11-10T21:33:45.400Z,6.43
2022-11-10T21:36:11.974Z,8.05
2022-11-10T21:38:38.736Z,6.45
2022-11-10T21:41:05.504Z,8.73
2022-11-10T21:43:32.029Z,8.60
2022-11-10T21:46:01.661Z,8.75
2022-11-10T21:48:28.174Z,8.35
2022-11-10T21:50:59.821Z,9.23
2022-11-10T21:53:26.335Z,7.22
2022-11-10T21:56:00.374Z,8.23
2022-11-10T21:58:27.301Z,9.75
2022-11-10T22:01:04.198Z,11.68
2022-11-10T22:03:32.159Z,6.50
2022-11-10T22:06:05.730Z,8.80
2022-11-10T22:08:32.814Z,5.80
2022-11-10T22:11:18.090Z,7.47
2022-11-10T22:14:03.422Z,6.85
2022-11-10T22:16:53.486Z,6.82
2022-11-10T22:19:20.090Z,8.35
2022-11-10T22:21:46.628Z,7.10
2022-11-10T22:24:26.681Z,7.85
2022-11-10T22:26:55.492Z,9.32
2022-11-10T22:29:27.379Z,7.22
2022-11-10T22:31:58.114Z,6.63
2022-11-10T22:34:25.095Z,9.60
2022-11-10T22:36:53.601Z,9.25
2022-11-10T22:39:20.150Z,8.27
2022-11-10T22:42:06.352Z,6.45
2022-11-10T22:44:32.968Z,6.95
2022-11-10T22:46:59.467Z,6.75
2022-11-10T22:49:26.047Z,7.82
2022-11-10T22:51:55.329Z,8.30
2022-11-10T22:54:23.871Z,8.70
2022-11-10T22:56:51.582Z,5.05
2022-11-10T22:59:19.123Z,6.30
2022-11-10T23:01:46.385Z,8.32
2022-11-10T23:04:15.884Z,7.65
2022-11-10T23:06:42.604Z,9.13
2022-11-10T23:09:09.211Z,6.93
2022-11-10T23:11:35.913Z,8.02
2022-11-10T23:14:02.459Z,7.20
2022-11-10T23:16:32.028Z,8.00
2022-11-10T23:18:59.071Z,7.97
2022-11-10T23:21:28.634Z,8.23
2022-11-10T23:23:55.995Z,5.07
2022-11-10T23:26:30.148Z,4.88
2022-11-10T23:28:56.729Z,8.60
2022-11-10T23:31:25.461Z,6.63
2022-11-10T23:33:54.189Z,6.82
2022-11-10T23:36:22.905Z,7.68
2022-11-10T23:38:49.592Z,7.75
2022-11-10T23:41:18.799Z,6.50
2022-11-10T23:43:45.674Z,8.70
2022-11-10T23:46:12.440Z,7.65
2022-11-10T23:48:40.222Z,10.43
2022-11-10T23:51:09.311Z,5.88
2022-11-10T23:53:35.823Z,6.63
2022-11-10T23:56:04.203Z,6.68
2022-11-10T23:58:30.719Z,7.60
